sensor_id;sensor_type;location;lat;lon;timestamp;pressure;altitude;pressure_sealevel;temperature;humidity
55687;BME280;41911;52.362;4.978;2023-03-16T00:00:02;101732.87;;;5.90;37.55
55687;BME280;41911;52.362;4.978;2023-03-16T00:01:31;101732.69;;;5.35;37.39
55687;BME280;41911;52.362;4.978;2023-03-16T00:02:04;101728.27;;;6.15;37.24
55687;BME280;41911;52.362;4.978;2023-03-16T00:02:35;101728.01;;;5.97;37.18
55687;BME280;41911;52.362;4.978;2023-03-16T00:03:06;101726.18;;;6.02;37.20
55687;BME280;41911;52.362;4.978;2023-03-16T00:03:38;101727.08;;;6.11;36.91
55687;BME280;41911;52.362;4.978;2023-03-16T00:04:09;101726.74;;;6.12;37.07
55687;BME280;41911;52.362;4.978;2023-03-16T00:04:40;101724.30;;;6.07;36.64
55687;BME280;41911;52.362;4.978;2023-03-16T00:05:12;101721.43;;;5.93;36.85
55687;BME280;41911;52.362;4.978;2023-03-16T00:05:45;101721.61;;;5.51;37.46
55687;BME280;41911;52.362;4.978;2023-03-16T00:06:16;101721.81;;;5.55;37.21
55687;BME280;41911;52.362;4.978;2023-03-16T00:06:47;101723.13;;;6.29;37.04
55687;BME280;41911;52.362;4.978;2023-03-16T00:07:19;101721.31;;;6.36;37.29
55687;BME280;41911;52.362;4.978;2023-03-16T00:07:50;101721.22;;;5.93;37.44
55687;BME280;41911;52.362;4.978;2023-03-16T00:08:21;101721.00;;;5.90;37.22
55687;BME280;41911;52.362;4.978;2023-03-16T00:08:52;101720.89;;;6.51;36.94
55687;BME280;41911;52.362;4.978;2023-03-16T00:09:23;101718.13;;;5.92;36.96
55687;BME280;41911;52.362;4.978;2023-03-16T00:09:54;101718.91;;;6.05;37.05
55687;BME280;41911;52.362;4.978;2023-03-16T00:10:25;101716.71;;;5.69;37.33
55687;BME280;41911;52.362;4.978;2023-03-16T00:10:57;101716.89;;;6.13;37.09
55687;BME280;41911;52.362;4.978;2023-03-16T00:11:28;101718.52;;;6.00;37.14
55687;BME280;41911;52.362;4.978;2023-03-16T00:12:00;101715.87;;;6.03;37.24
55687;BME280;41911;52.362;4.978;2023-03-16T00:12:31;101719.52;;;6.47;37.34
55687;BME280;41911;52.362;4.978;2023-03-16T00:13:02;101716.51;;;6.22;37.74
55687;BME280;41911;52.362;4.978;2023-03-16T00:13:33;101717.13;;;6.24;37.78
55687;BME280;41911;52.362;4.978;2023-03-16T00:14:04;101716.29;;;6.33;37.29
55687;BME280;41911;52.362;4.978;2023-03-16T00:14:35;101713.88;;;6.07;37.74
55687;BME280;41911;52.362;4.978;2023-03-16T00:15:07;101712.92;;;5.88;37.61
55687;BME280;41911;52.362;4.978;2023-03-16T00:15:38;101714.13;;;6.29;37.60
55687;BME280;41911;52.362;4.978;2023-03-16T00:16:09;101711.58;;;5.79;37.64
55687;BME280;41911;52.362;4.978;2023-03-16T00:16:40;101707.79;;;5.75;37.46
55687;BME280;41911;52.362;4.978;2023-03-16T00:17:13;101708.03;;;5.36;37.66
55687;BME280;41911;52.362;4.978;2023-03-16T00:17:44;101707.24;;;5.74;37.68
55687;BME280;41911;52.362;4.978;2023-03-16T00:18:16;101707.17;;;5.83;37.64
55687;BME280;41911;52.362;4.978;2023-03-16T00:18:47;101703.58;;;5.38;37.71
55687;BME280;41911;52.362;4.978;2023-03-16T00:19:18;101703.09;;;5.62;37.80
55687;BME280;41911;52.362;4.978;2023-03-16T00:19:52;101701.82;;;5.76;37.78
55687;BME280;41911;52.362;4.978;2023-03-16T00:20:23;101698.05;;;5.88;37.62
55687;BME280;41911;52.362;4.978;2023-03-16T00:20:57;101702.14;;;5.44;37.75
55687;BME280;41911;52.362;4.978;2023-03-16T00:21:28;101700.46;;;5.82;37.41
55687;BME280;41911;52.362;4.978;2023-03-16T00:21:59;101701.88;;;6.22;37.55
55687;BME280;41911;52.362;4.978;2023-03-16T00:22:30;101702.86;;;5.83;37.69
55687;BME280;41911;52.362;4.978;2023-03-16T00:23:01;101702.30;;;5.72;37.99
55687;BME280;41911;52.362;4.978;2023-03-16T00:23:33;101699.58;;;5.25;37.95
55687;BME280;41911;52.362;4.978;2023-03-16T00:24:05;101702.18;;;5.39;37.90
55687;BME280;41911;52.362;4.978;2023-03-16T00:24:36;101699.98;;;6.09;37.69
55687;BME280;41911;52.362;4.978;2023-03-16T00:25:08;101699.89;;;6.12;37.77
55687;BME280;41911;52.362;4.978;2023-03-16T00:25:39;101695.71;;;5.93;37.80
55687;BME280;41911;52.362;4.978;2023-03-16T00:26:10;101693.93;;;5.63;37.84
55687;BME280;41911;52.362;4.978;2023-03-16T00:26:41;101691.48;;;6.05;37.96
55687;BME280;41911;52.362;4.978;2023-03-16T00:27:14;101690.73;;;5.88;37.92
55687;BME280;41911;52.362;4.978;2023-03-16T00:27:45;101691.07;;;6.29;37.74
55687;BME280;41911;52.362;4.978;2023-03-16T00:28:16;101690.14;;;6.17;37.58
55687;BME280;41911;52.362;4.978;2023-03-16T00:28:47;101687.63;;;6.14;37.93
55687;BME280;41911;52.362;4.978;2023-03-16T00:29:18;101686.14;;;6.25;37.70
55687;BME280;41911;52.362;4.978;2023-03-16T00:29:51;101686.73;;;5.65;37.73
55687;BME280;41911;52.362;4.978;2023-03-16T00:30:23;101688.27;;;5.67;38.21
55687;BME280;41911;52.362;4.978;2023-03-16T00:30:54;101690.04;;;5.75;38.32
55687;BME280;41911;52.362;4.978;2023-03-16T00:31:25;101691.38;;;5.59;38.33
55687;BME280;41911;52.362;4.978;2023-03-16T00:31:56;101689.47;;;5.99;38.02
55687;BME280;41911;52.362;4.978;2023-03-16T00:32:28;101693.51;;;5.76;38.15
55687;BME280;41911;52.362;4.978;2023-03-16T00:33:00;101695.73;;;6.13;38.19
55687;BME280;41911;52.362;4.978;2023-03-16T00:33:31;101695.73;;;6.17;37.97
55687;BME280;41911;52.362;4.978;2023-03-16T00:34:03;101693.89;;;6.18;38.16
55687;BME280;41911;52.362;4.978;2023-03-16T00:34:34;101693.33;;;6.24;38.04
55687;BME280;41911;52.362;4.978;2023-03-16T00:35:06;101694.08;;;5.98;37.96
55687;BME280;41911;52.362;4.978;2023-03-16T00:35:37;101694.71;;;6.11;37.82
55687;BME280;41911;52.362;4.978;2023-03-16T00:36:10;101690.50;;;5.72;38.07
55687;BME280;41911;52.362;4.978;2023-03-16T00:36:41;101690.38;;;6.47;37.88
55687;BME280;41911;52.362;4.978;2023-03-16T00:37:14;101690.03;;;5.79;38.00
55687;BME280;41911;52.362;4.978;2023-03-16T00:37:46;101689.30;;;5.78;38.06
55687;BME280;41911;52.362;4.978;2023-03-16T00:38:18;101689.15;;;6.40;37.76
55687;BME280;41911;52.362;4.978;2023-03-16T00:38:50;101691.62;;;6.57;37.76
55687;BME280;41911;52.362;4.978;2023-03-16T00:39:20;101688.62;;;5.93;37.85
55687;BME280;41911;52.362;4.978;2023-03-16T00:39:52;101689.72;;;5.86;37.69
55687;BME280;41911;52.362;4.978;2023-03-16T00:40:24;101686.32;;;5.98;37.72
55687;BME280;41911;52.362;4.978;2023-03-16T00:40:55;101687.45;;;6.46;37.80
55687;BME280;41911;52.362;4.978;2023-03-16T00:41:26;101688.95;;;5.71;38.11
55687;BME280;41911;52.362;4.978;2023-03-16T00:41:57;101689.41;;;5.69;37.81
55687;BME280;41911;52.362;4.978;2023-03-16T00:42:29;101688.67;;;5.79;37.85
55687;BME280;41911;52.362;4.978;2023-03-16T00:43:00;101689.83;;;5.71;37.75
55687;BME280;41911;52.362;4.978;2023-03-16T00:43:31;101687.58;;;5.81;37.86
55687;BME280;41911;52.362;4.978;2023-03-16T00:44:02;101684.61;;;5.88;37.64
55687;BME280;41911;52.362;4.978;2023-03-16T00:44:34;101683.99;;;6.10;37.77
55687;BME280;41911;52.362;4.978;2023-03-16T00:45:06;101682.70;;;6.55;37.77
55687;BME280;41911;52.362;4.978;2023-03-16T00:45:37;101680.05;;;6.03;37.68
55687;BME280;41911;52.362;4.978;2023-03-16T00:46:10;101678.86;;;6.60;37.74
55687;BME280;41911;52.362;4.978;2023-03-16T00:46:42;101679.65;;;6.42;37.96
55687;BME280;41911;52.362;4.978;2023-03-16T00:47:13;101674.16;;;6.10;37.90
55687;BME280;41911;52.362;4.978;2023-03-16T00:47:44;101672.70;;;6.28;37.66
55687;BME280;41911;52.362;4.978;2023-03-16T00:48:15;101674.44;;;5.90;37.63
55687;BME280;41911;52.362;4.978;2023-03-16T00:48:46;101674.21;;;6.09;37.85
55687;BME280;41911;52.362;4.978;2023-03-16T00:49:18;101672.06;;;5.80;37.95
55687;BME280;41911;52.362;4.978;2023-03-16T00:49:50;101670.92;;;5.96;37.89
55687;BME280;41911;52.362;4.978;2023-03-16T00:50:21;101671.53;;;6.35;37.66
55687;BME280;41911;52.362;4.978;2023-03-16T00:50:52;101672.11;;;6.00;37.79
55687;BME280;41911;52.362;4.978;2023-03-16T00:51:23;101670.22;;;5.98;37.78
55687;BME280;41911;52.362;4.978;2023-03-16T00:51:54;101670.61;;;6.18;37.69
55687;BME280;41911;52.362;4.978;2023-03-16T00:52:26;101671.18;;;6.15;37.64
55687;BME280;41911;52.362;4.978;2023-03-16T00:52:57;101670.64;;;5.81;37.68
55687;BME280;41911;52.362;4.978;2023-03-16T00:53:29;101666.86;;;6.16;37.65
55687;BME280;41911;52.362;4.978;2023-03-16T00:54:00;101665.28;;;6.15;37.74
55687;BME280;41911;52.362;4.978;2023-03-16T00:54:32;101663.61;;;5.93;37.73
55687;BME280;41911;52.362;4.978;2023-03-16T00:55:03;101664.92;;;6.50;37.86
55687;BME280;41911;52.362;4.978;2023-03-16T00:55:34;101663.76;;;5.97;37.88
55687;BME280;41911;52.362;4.978;2023-03-16T00:56:06;101665.41;;;6.54;37.95
55687;BME280;41911;52.362;4.978;2023-03-16T00:56:38;101667.59;;;6.20;37.82
55687;BME280;41911;52.362;4.978;2023-03-16T00:57:10;101664.93;;;6.37;37.85
55687;BME280;41911;52.362;4.978;2023-03-16T00:57:41;101665.20;;;6.12;37.92
55687;BME280;41911;52.362;4.978;2023-03-16T00:58:12;101661.89;;;6.10;37.93
55687;BME280;41911;52.362;4.978;2023-03-16T00:58:45;101661.92;;;6.16;37.92
55687;BME280;41911;52.362;4.978;2023-03-16T00:59:16;101659.16;;;6.04;38.00
55687;BME280;41911;52.362;4.978;2023-03-16T00:59:48;101656.53;;;6.09;37.76
55687;BME280;41911;52.362;4.978;2023-03-16T01:00:19;101655.54;;;6.17;37.88
55687;BME280;41911;52.362;4.978;2023-03-16T01:00:51;101658.18;;;6.20;37.89
55687;BME280;41911;52.362;4.978;2023-03-16T01:01:22;101656.26;;;6.27;37.77
55687;BME280;41911;52.362;4.978;2023-03-16T01:01:54;101656.28;;;6.32;37.83
55687;BME280;41911;52.362;4.978;2023-03-16T01:02:25;101657.39;;;6.22;37.74
55687;BME280;41911;52.362;4.978;2023-03-16T01:02:56;101661.75;;;6.26;37.77
55687;BME280;41911;52.362;4.978;2023-03-16T01:03:27;101662.31;;;6.29;37.80
55687;BME280;41911;52.362;4.978;2023-03-16T01:03:59;101660.56;;;6.33;37.77
55687;BME280;41911;52.362;4.978;2023-03-16T01:04:30;101658.78;;;6.64;37.76
55687;BME280;41911;52.362;4.978;2023-03-16T01:05:01;101658.97;;;6.46;37.74
55687;BME280;41911;52.362;4.978;2023-03-16T01:05:33;101657.66;;;6.37;37.81
55687;BME280;41911;52.362;4.978;2023-03-16T01:06:11;101658.06;;;6.19;37.96
55687;BME280;41911;52.362;4.978;2023-03-16T01:06:44;101658.27;;;6.25;37.79
55687;BME280;41911;52.362;4.978;2023-03-16T01:07:15;101655.71;;;6.25;37.83
55687;BME280;41911;52.362;4.978;2023-03-16T01:07:46;101655.38;;;6.18;37.95
55687;BME280;41911;52.362;4.978;2023-03-16T01:08:17;101652.51;;;6.11;38.12
55687;BME280;41911;52.362;4.978;2023-03-16T01:08:48;101651.29;;;6.43;38.10
55687;BME280;41911;52.362;4.978;2023-03-16T01:09:19;101651.62;;;6.12;38.15
55687;BME280;41911;52.362;4.978;2023-03-16T01:09:50;101651.89;;;5.99;38.12
55687;BME280;41911;52.362;4.978;2023-03-16T01:10:21;101648.57;;;6.15;38.11
55687;BME280;41911;52.362;4.978;2023-03-16T01:10:54;101645.73;;;6.14;38.20
55687;BME280;41911;52.362;4.978;2023-03-16T01:11:25;101646.48;;;6.19;38.21
55687;BME280;41911;52.362;4.978;2023-03-16T01:11:56;101645.86;;;6.12;38.30
55687;BME280;41911;52.362;4.978;2023-03-16T01:12:27;101642.69;;;6.18;38.20
55687;BME280;41911;52.362;4.978;2023-03-16T01:12:58;101641.85;;;6.30;37.97
55687;BME280;41911;52.362;4.978;2023-03-16T01:13:29;101643.94;;;6.33;38.03
55687;BME280;41911;52.362;4.978;2023-03-16T01:14:01;101643.93;;;6.17;38.14
55687;BME280;41911;52.362;4.978;2023-03-16T01:14:33;101644.60;;;6.27;38.21
55687;BME280;41911;52.362;4.978;2023-03-16T01:15:05;101642.34;;;6.36;38.02
55687;BME280;41911;52.362;4.978;2023-03-16T01:15:36;101641.75;;;6.35;38.09
55687;BME280;41911;52.362;4.978;2023-03-16T01:16:09;101642.51;;;6.33;38.13
55687;BME280;41911;52.362;4.978;2023-03-16T01:16:40;101642.98;;;6.71;38.17
55687;BME280;41911;52.362;4.978;2023-03-16T01:17:11;101641.82;;;6.47;37.79
55687;BME280;41911;52.362;4.978;2023-03-16T01:17:42;101644.53;;;6.26;38.15
55687;BME280;41911;52.362;4.978;2023-03-16T01:18:13;101641.65;;;6.19;38.19
55687;BME280;41911;52.362;4.978;2023-03-16T01:18:45;101639.51;;;6.22;38.26
55687;BME280;41911;52.362;4.978;2023-03-16T01:19:16;101640.38;;;6.33;38.12
55687;BME280;41911;52.362;4.978;2023-03-16T01:19:47;101638.00;;;6.32;38.15
55687;BME280;41911;52.362;4.978;2023-03-16T01:20:18;101637.33;;;6.26;38.31
55687;BME280;41911;52.362;4.978;2023-03-16T01:20:49;101637.97;;;6.31;38.01
55687;BME280;41911;52.362;4.978;2023-03-16T01:21:21;101635.72;;;6.29;38.17
55687;BME280;41911;52.362;4.978;2023-03-16T01:21:52;101637.39;;;6.30;38.17
55687;BME280;41911;52.362;4.978;2023-03-16T01:22:23;101635.60;;;6.34;38.12
55687;BME280;41911;52.362;4.978;2023-03-16T01:22:54;101630.85;;;6.23;38.33
55687;BME280;41911;52.362;4.978;2023-03-16T01:23:25;101634.53;;;6.23;38.33
55687;BME280;41911;52.362;4.978;2023-03-16T01:23:56;101632.74;;;6.31;38.22
55687;BME280;41911;52.362;4.978;2023-03-16T01:24:27;101629.48;;;6.31;38.26
55687;BME280;41911;52.362;4.978;2023-03-16T01:24:58;101627.07;;;6.32;38.18
55687;BME280;41911;52.362;4.978;2023-03-16T01:25:29;101631.07;;;6.21;38.29
55687;BME280;41911;52.362;4.978;2023-03-16T01:26:01;101627.16;;;6.18;38.43
55687;BME280;41911;52.362;4.978;2023-03-16T01:26:32;101627.11;;;6.58;38.24
55687;BME280;41911;52.362;4.978;2023-03-16T01:27:03;101625.13;;;6.26;38.33
55687;BME280;41911;52.362;4.978;2023-03-16T01:27:34;101625.35;;;6.27;38.46
55687;BME280;41911;52.362;4.978;2023-03-16T01:28:05;101625.20;;;6.31;38.38
55687;BME280;41911;52.362;4.978;2023-03-16T01:28:37;101625.13;;;6.26;38.48
55687;BME280;41911;52.362;4.978;2023-03-16T01:29:08;101622.50;;;6.34;38.33
55687;BME280;41911;52.362;4.978;2023-03-16T01:29:39;101623.37;;;6.23;38.50
55687;BME280;41911;52.362;4.978;2023-03-16T01:30:11;101623.41;;;6.65;38.55
55687;BME280;41911;52.362;4.978;2023-03-16T01:30:44;101622.38;;;6.17;38.80
55687;BME280;41911;52.362;4.978;2023-03-16T01:31:15;101621.76;;;6.19;38.69
55687;BME280;41911;52.362;4.978;2023-03-16T01:31:46;101617.79;;;6.09;38.79
55687;BME280;41911;52.362;4.978;2023-03-16T01:32:17;101617.31;;;6.25;38.70
55687;BME280;41911;52.362;4.978;2023-03-16T01:32:48;101617.71;;;6.34;38.85
55687;BME280;41911;52.362;4.978;2023-03-16T01:33:19;101617.17;;;6.16;38.75
55687;BME280;41911;52.362;4.978;2023-03-16T01:33:50;101617.96;;;6.17;38.80
55687;BME280;41911;52.362;4.978;2023-03-16T01:34:21;101617.46;;;6.07;38.84
55687;BME280;41911;52.362;4.978;2023-03-16T01:34:52;101617.20;;;6.00;38.83
55687;BME280;41911;52.362;4.978;2023-03-16T01:35:23;101613.85;;;6.26;38.97
55687;BME280;41911;52.362;4.978;2023-03-16T01:35:56;101614.84;;;6.70;38.77
55687;BME280;41911;52.362;4.978;2023-03-16T01:36:27;101615.02;;;6.18;38.78
55687;BME280;41911;52.362;4.978;2023-03-16T01:36:58;101614.67;;;6.76;38.81
55687;BME280;41911;52.362;4.978;2023-03-16T01:37:29;101614.17;;;6.24;38.77
55687;BME280;41911;52.362;4.978;2023-03-16T01:38:00;101613.50;;;6.29;38.67
55687;BME280;41911;52.362;4.978;2023-03-16T01:38:32;101615.10;;;6.46;38.77
55687;BME280;41911;52.362;4.978;2023-03-16T01:39:03;101612.94;;;6.40;38.60
55687;BME280;41911;52.362;4.978;2023-03-16T01:39:34;101610.43;;;6.49;38.65
55687;BME280;41911;52.362;4.978;2023-03-16T01:40:06;101609.79;;;6.28;38.73
55687;BME280;41911;52.362;4.978;2023-03-16T01:40:37;101605.45;;;6.68;38.64
55687;BME280;41911;52.362;4.978;2023-03-16T01:41:09;101603.76;;;6.42;38.57
55687;BME280;41911;52.362;4.978;2023-03-16T01:41:41;101601.82;;;6.40;38.71
55687;BME280;41911;52.362;4.978;2023-03-16T01:42:13;101599.35;;;6.21;38.86
55687;BME280;41911;52.362;4.978;2023-03-16T01:42:45;101595.67;;;5.96;39.17
55687;BME280;41911;52.362;4.978;2023-03-16T01:43:18;101596.54;;;6.03;39.07
55687;BME280;41911;52.362;4.978;2023-03-16T01:43:49;101601.78;;;6.08;39.03
55687;BME280;41911;52.362;4.978;2023-03-16T01:44:22;101599.25;;;6.04;39.03
55687;BME280;41911;52.362;4.978;2023-03-16T01:44:57;101595.90;;;6.69;39.01
55687;BME280;41911;52.362;4.978;2023-03-16T01:46:33;101593.81;;;6.18;38.98
55687;BME280;41911;52.362;4.978;2023-03-16T01:47:04;101591.61;;;6.21;38.89
55687;BME280;41911;52.362;4.978;2023-03-16T01:47:35;101595.94;;;6.35;38.83
55687;BME280;41911;52.362;4.978;2023-03-16T01:48:06;101593.88;;;6.89;38.84
55687;BME280;41911;52.362;4.978;2023-03-16T01:48:40;101593.71;;;6.31;38.72
55687;BME280;41911;52.362;4.978;2023-03-16T01:49:16;101594.32;;;6.33;38.83
55687;BME280;41911;52.362;4.978;2023-03-16T01:49:49;101593.03;;;6.21;39.01
55687;BME280;41911;52.362;4.978;2023-03-16T01:50:23;101590.48;;;6.35;38.80
55687;BME280;41911;52.362;4.978;2023-03-16T01:50:54;101588.13;;;6.39;38.79
55687;BME280;41911;52.362;4.978;2023-03-16T01:51:29;101588.00;;;6.49;38.81
55687;BME280;41911;52.362;4.978;2023-03-16T01:52:03;101585.94;;;6.43;38.79
55687;BME280;41911;52.362;4.978;2023-03-16T01:52:37;101587.74;;;6.43;38.71
55687;BME280;41911;52.362;4.978;2023-03-16T01:53:09;101585.84;;;6.02;38.91
55687;BME280;41911;52.362;4.978;2023-03-16T01:53:43;101586.91;;;6.31;38.91
55687;BME280;41911;52.362;4.978;2023-03-16T01:54:24;101579.93;;;6.38;38.76
55687;BME280;41911;52.362;4.978;2023-03-16T01:54:58;101582.57;;;6.39;38.86
55687;BME280;41911;52.362;4.978;2023-03-16T01:55:30;101582.91;;;6.38;38.90
55687;BME280;41911;52.362;4.978;2023-03-16T01:56:06;101586.30;;;6.42;38.86
55687;BME280;41911;52.362;4.978;2023-03-16T01:56:43;101584.53;;;6.46;38.80
55687;BME280;41911;52.362;4.978;2023-03-16T01:57:18;101585.16;;;6.38;38.86
55687;BME280;41911;52.362;4.978;2023-03-16T01:57:50;101584.70;;;6.44;38.84
55687;BME280;41911;52.362;4.978;2023-03-16T01:58:21;101586.74;;;6.25;38.76
55687;BME280;41911;52.362;4.978;2023-03-16T01:58:55;101585.16;;;6.48;38.78
55687;BME280;41911;52.362;4.978;2023-03-16T01:59:31;101582.05;;;6.15;38.88
55687;BME280;41911;52.362;4.978;2023-03-16T02:00:06;101580.88;;;6.03;38.81
55687;BME280;41911;52.362;4.978;2023-03-16T02:00:38;101582.33;;;6.39;38.94
55687;BME280;41911;52.362;4.978;2023-03-16T02:01:10;101579.67;;;6.50;38.94
55687;BME280;41911;52.362;4.978;2023-03-16T02:01:43;101579.20;;;6.41;39.01
55687;BME280;41911;52.362;4.978;2023-03-16T02:02:24;101580.16;;;6.49;38.84
55687;BME280;41911;52.362;4.978;2023-03-16T02:03:02;101576.99;;;6.85;38.84
55687;BME280;41911;52.362;4.978;2023-03-16T02:03:36;101580.06;;;6.21;38.88
55687;BME280;41911;52.362;4.978;2023-03-16T02:04:20;101577.50;;;6.52;38.87
55687;BME280;41911;52.362;4.978;2023-03-16T02:05:00;101576.38;;;6.35;39.07
55687;BME280;41911;52.362;4.978;2023-03-16T02:05:40;101575.28;;;6.15;39.10
55687;BME280;41911;52.362;4.978;2023-03-16T02:06:17;101571.35;;;6.50;39.11
55687;BME280;41911;52.362;4.978;2023-03-16T02:06:48;101572.26;;;6.51;39.03
55687;BME280;41911;52.362;4.978;2023-03-16T02:07:25;101572.29;;;6.41;39.02
55687;BME280;41911;52.362;4.978;2023-03-16T02:08:00;101567.83;;;6.47;38.97
55687;BME280;41911;52.362;4.978;2023-03-16T02:08:33;101567.11;;;6.46;39.02
55687;BME280;41911;52.362;4.978;2023-03-16T02:09:06;101565.80;;;6.30;39.22
55687;BME280;41911;52.362;4.978;2023-03-16T02:09:40;101560.80;;;6.15;39.35
55687;BME280;41911;52.362;4.978;2023-03-16T02:10:14;101559.18;;;6.57;39.32
55687;BME280;41911;52.362;4.978;2023-03-16T02:10:46;101562.96;;;6.37;39.25
55687;BME280;41911;52.362;4.978;2023-03-16T02:11:17;101561.35;;;6.43;39.20
55687;BME280;41911;52.362;4.978;2023-03-16T02:11:49;101561.26;;;6.31;39.26
55687;BME280;41911;52.362;4.978;2023-03-16T02:12:21;101561.42;;;6.41;39.23
55687;BME280;41911;52.362;4.978;2023-03-16T02:12:52;101565.47;;;6.45;39.25
55687;BME280;41911;52.362;4.978;2023-03-16T02:13:24;101559.12;;;6.02;39.70
55687;BME280;41911;52.362;4.978;2023-03-16T02:13:58;101562.79;;;6.23;39.45
55687;BME280;41911;52.362;4.978;2023-03-16T02:14:32;101559.66;;;6.20;39.46
55687;BME280;41911;52.362;4.978;2023-03-16T02:15:04;101558.64;;;6.19;39.50
55687;BME280;41911;52.362;4.978;2023-03-16T02:15:35;101559.55;;;6.05;39.64
55687;BME280;41911;52.362;4.978;2023-03-16T02:16:07;101559.27;;;6.08;39.31
55687;BME280;41911;52.362;4.978;2023-03-16T02:16:40;101562.47;;;6.37;39.32
55687;BME280;41911;52.362;4.978;2023-03-16T02:17:13;101560.86;;;6.18;39.52
55687;BME280;41911;52.362;4.978;2023-03-16T02:17:46;101557.80;;;6.48;39.59
55687;BME280;41911;52.362;4.978;2023-03-16T02:18:19;101557.65;;;6.49;39.75
55687;BME280;41911;52.362;4.978;2023-03-16T02:18:50;101554.26;;;6.27;39.92
55687;BME280;41911;52.362;4.978;2023-03-16T02:19:29;101555.81;;;6.44;40.06
55687;BME280;41911;52.362;4.978;2023-03-16T02:20:14;101555.07;;;5.94;40.21
55687;BME280;41911;52.362;4.978;2023-03-16T02:20:57;101551.94;;;5.94;40.35
55687;BME280;41911;52.362;4.978;2023-03-16T02:21:43;101552.89;;;6.28;40.14
55687;BME280;41911;52.362;4.978;2023-03-16T02:22:18;101549.66;;;5.67;40.41
55687;BME280;41911;52.362;4.978;2023-03-16T02:22:51;101549.88;;;6.15;40.59
55687;BME280;41911;52.362;4.978;2023-03-16T02:23:23;101546.50;;;5.82;40.52
55687;BME280;41911;52.362;4.978;2023-03-16T02:23:55;101549.20;;;6.12;40.59
55687;BME280;41911;52.362;4.978;2023-03-16T02:24:26;101546.77;;;6.06;40.47
55687;BME280;41911;52.362;4.978;2023-03-16T02:24:57;101548.85;;;6.22;40.33
55687;BME280;41911;52.362;4.978;2023-03-16T02:25:30;101552.95;;;6.31;40.19
55687;BME280;41911;52.362;4.978;2023-03-16T02:26:10;101550.03;;;6.36;40.33
55687;BME280;41911;52.362;4.978;2023-03-16T02:26:48;101548.56;;;6.39;40.21
55687;BME280;41911;52.362;4.978;2023-03-16T02:27:28;101547.50;;;5.91;40.23
55687;BME280;41911;52.362;4.978;2023-03-16T02:28:09;101548.86;;;5.72;40.47
55687;BME280;41911;52.362;4.978;2023-03-16T02:28:55;101550.81;;;6.15;40.65
55687;BME280;41911;52.362;4.978;2023-03-16T02:29:55;101553.74;;;5.70;40.72
55687;BME280;41911;52.362;4.978;2023-03-16T02:30:30;101548.46;;;5.56;40.62
55687;BME280;41911;52.362;4.978;2023-03-16T02:31:02;101549.69;;;5.87;40.83
55687;BME280;41911;52.362;4.978;2023-03-16T02:31:35;101550.82;;;6.19;40.44
55687;BME280;41911;52.362;4.978;2023-03-16T02:32:08;101551.17;;;6.34;40.51
55687;BME280;41911;52.362;4.978;2023-03-16T02:32:40;101550.42;;;6.05;40.53
55687;BME280;41911;52.362;4.978;2023-03-16T02:33:13;101552.65;;;6.14;40.50
55687;BME280;41911;52.362;4.978;2023-03-16T02:33:46;101550.96;;;5.96;40.67
55687;BME280;41911;52.362;4.978;2023-03-16T02:34:20;101548.69;;;5.75;40.91
55687;BME280;41911;52.362;4.978;2023-03-16T02:34:52;101548.58;;;5.94;41.21
55687;BME280;41911;52.362;4.978;2023-03-16T02:35:23;101548.27;;;5.55;41.38
55687;BME280;41911;52.362;4.978;2023-03-16T02:35:55;101547.36;;;5.71;41.29
55687;BME280;41911;52.362;4.978;2023-03-16T02:36:26;101545.11;;;6.17;41.10
55687;BME280;41911;52.362;4.978;2023-03-16T02:36:59;101547.66;;;6.07;41.19
55687;BME280;41911;52.362;4.978;2023-03-16T02:37:31;101542.78;;;6.29;41.35
55687;BME280;41911;52.362;4.978;2023-03-16T02:38:02;101543.46;;;6.29;41.05
55687;BME280;41911;52.362;4.978;2023-03-16T02:38:34;101544.48;;;6.16;41.00
55687;BME280;41911;52.362;4.978;2023-03-16T02:39:05;101542.72;;;6.24;41.15
55687;BME280;41911;52.362;4.978;2023-03-16T02:39:36;101542.48;;;6.26;41.15
55687;BME280;41911;52.362;4.978;2023-03-16T02:40:20;101542.59;;;5.86;41.62
55687;BME280;41911;52.362;4.978;2023-03-16T02:40:57;101542.54;;;5.65;41.86
55687;BME280;41911;52.362;4.978;2023-03-16T02:41:29;101542.45;;;5.72;41.80
55687;BME280;41911;52.362;4.978;2023-03-16T02:42:01;101541.67;;;5.88;41.84
55687;BME280;41911;52.362;4.978;2023-03-16T02:42:32;101537.89;;;5.90;41.79
55687;BME280;41911;52.362;4.978;2023-03-16T02:43:06;101544.68;;;5.86;41.78
55687;BME280;41911;52.362;4.978;2023-03-16T02:43:41;101543.31;;;5.51;41.83
55687;BME280;41911;52.362;4.978;2023-03-16T02:44:15;101543.91;;;5.78;41.78
55687;BME280;41911;52.362;4.978;2023-03-16T02:44:54;101544.17;;;5.91;41.81
55687;BME280;41911;52.362;4.978;2023-03-16T02:45:30;101545.95;;;5.99;41.72
55687;BME280;41911;52.362;4.978;2023-03-16T02:46:03;101541.69;;;6.07;41.59
55687;BME280;41911;52.362;4.978;2023-03-16T02:46:34;101540.28;;;6.01;41.69
55687;BME280;41911;52.362;4.978;2023-03-16T02:47:09;101543.06;;;6.15;41.67
55687;BME280;41911;52.362;4.978;2023-03-16T02:47:47;101545.32;;;5.99;41.62
55687;BME280;41911;52.362;4.978;2023-03-16T02:48:24;101540.79;;;6.12;41.63
55687;BME280;41911;52.362;4.978;2023-03-16T02:49:00;101544.70;;;5.84;41.92
55687;BME280;41911;52.362;4.978;2023-03-16T02:49:35;101543.00;;;6.04;41.65
55687;BME280;41911;52.362;4.978;2023-03-16T02:50:09;101538.03;;;6.12;41.69
55687;BME280;41911;52.362;4.978;2023-03-16T02:50:45;101541.54;;;6.06;41.76
55687;BME280;41911;52.362;4.978;2023-03-16T02:51:17;101541.66;;;6.19;41.56
55687;BME280;41911;52.362;4.978;2023-03-16T02:51:48;101539.56;;;6.15;41.58
55687;BME280;41911;52.362;4.978;2023-03-16T02:52:19;101538.28;;;6.03;41.73
55687;BME280;41911;52.362;4.978;2023-03-16T02:52:50;101539.86;;;5.86;42.12
55687;BME280;41911;52.362;4.978;2023-03-16T02:53:21;101541.37;;;6.08;41.87
55687;BME280;41911;52.362;4.978;2023-03-16T02:53:53;101542.46;;;6.01;41.89
55687;BME280;41911;52.362;4.978;2023-03-16T02:54:24;101543.50;;;6.08;41.91